createdAt,value
2016-05-30T00:00:19.044Z,988.58
2016-05-30T00:01:19.063Z,988.58
2016-05-30T00:02:19.080Z,988.53
2016-05-30T00:03:19.114Z,988.53
2016-05-30T00:04:19.133Z,988.52
2016-05-30T00:05:19.167Z,988.56
2016-05-30T00:06:19.982Z,988.5
2016-05-30T00:07:19.688Z,988.53
2016-05-30T00:08:19.206Z,988.49
2016-05-30T00:09:19.224Z,988.43
2016-05-30T00:10:19.243Z,988.38
2016-05-30T00:11:19.261Z,988.35
2016-05-30T00:12:19.295Z,988.41
2016-05-30T00:13:19.313Z,988.36
2016-05-30T00:14:19.332Z,988.34
2016-05-30T00:15:19.350Z,988.32
2016-05-30T00:16:19.368Z,988.31
2016-05-30T00:17:19.387Z,988.3
2016-05-30T00:18:19.404Z,988.28
2016-05-30T00:19:19.439Z,988.29
2016-05-30T00:20:19.457Z,988.3
2016-05-30T00:21:20.116Z,988.24
2016-05-30T00:22:20.353Z,988.22
2016-05-30T00:23:19.512Z,988.2
2016-05-30T00:24:19.530Z,988.17
2016-05-30T00:25:19.564Z,988.16
2016-05-30T00:26:19.582Z,988.17
2016-05-30T00:27:19.600Z,988.16
2016-05-30T00:28:19.620Z,988.22
2016-05-30T00:29:19.638Z,988.22
2016-05-30T00:30:19.656Z,988.24
2016-05-30T00:31:19.689Z,988.22
2016-05-30T00:32:19.692Z,988.22
2016-05-30T00:33:19.726Z,988.15
2016-05-30T00:34:19.744Z,988.17
2016-05-30T00:35:19.763Z,988.2
2016-05-30T00:36:19.782Z,988.26
2016-05-30T00:37:19.800Z,988.25
2016-05-30T00:38:19.818Z,988.32
2016-05-30T00:39:19.835Z,988.36
2016-05-30T00:40:19.871Z,988.41
2016-05-30T00:41:19.889Z,988.39
2016-05-30T00:42:19.907Z,988.36
2016-05-30T00:43:19.926Z,988.35
2016-05-30T00:44:19.943Z,988.34
2016-05-30T00:45:19.962Z,988.33
2016-05-30T00:46:19.980Z,988.38
2016-05-30T00:47:19.999Z,988.38
2016-05-30T00:48:20.017Z,988.41
2016-05-30T00:49:20.051Z,988.37
2016-05-30T00:50:20.070Z,988.37
2016-05-30T00:51:20.462Z,988.36
2016-05-30T00:52:20.106Z,988.39
2016-05-30T00:53:20.139Z,988.34
2016-05-30T00:54:20.158Z,988.28
2016-05-30T00:55:20.176Z,988.3
2016-05-30T00:56:20.195Z,988.32
2016-05-30T00:57:20.213Z,988.36
2016-05-30T00:58:20.231Z,988.28
2016-05-30T00:59:20.250Z,988.3
2016-05-30T01:00:20.283Z,988.33
2016-05-30T01:01:20.302Z,988.35
2016-05-30T01:02:20.319Z,988.36
2016-05-30T01:03:20.338Z,988.38
2016-05-30T01:04:20.357Z,988.39
2016-05-30T01:05:20.375Z,988.39
2016-05-30T01:06:21.049Z,988.34
2016-05-30T01:08:20.430Z,988.31
2016-05-30T01:09:20.448Z,988.29
2016-05-30T01:10:20.482Z,988.25
2016-05-30T01:11:20.500Z,988.21
2016-05-30T01:12:20.518Z,988.17
2016-05-30T01:13:20.552Z,988.17
2016-05-30T01:14:20.571Z,988.18
2016-05-30T01:15:20.589Z,988.16
2016-05-30T01:16:20.608Z,988.17
2016-05-30T01:17:20.626Z,988.09
2016-05-30T01:19:20.662Z,988
2016-05-30T01:20:20.681Z,988.02
2016-05-30T01:21:21.121Z,987.99
2016-05-30T01:22:20.718Z,988.01
2016-05-30T01:23:20.751Z,988.07
2016-05-30T01:24:20.770Z,988.02
2016-05-30T01:25:20.898Z,988.04
2016-05-30T01:26:20.807Z,988.07
2016-05-30T01:27:20.825Z,988.01
2016-05-30T01:28:20.843Z,987.98
2016-05-30T01:29:20.861Z,988
2016-05-30T01:30:20.895Z,987.97
2016-05-30T01:31:20.914Z,987.94
2016-05-30T01:32:20.932Z,987.9
2016-05-30T01:33:20.966Z,987.91
2016-05-30T01:34:20.968Z,987.84
2016-05-30T01:35:20.987Z,987.81
2016-05-30T01:36:21.021Z,987.76
2016-05-30T01:38:21.057Z,987.74
2016-05-30T01:39:21.076Z,987.75
2016-05-30T01:42:21.130Z,987.72
2016-05-30T01:44:21.168Z,987.66
2016-05-30T01:45:21.185Z,987.64
2016-05-30T01:46:21.220Z,987.62
2016-05-30T01:47:21.237Z,987.61
2016-05-30T01:48:21.256Z,987.62
2016-05-30T01:49:21.274Z,987.62
2016-05-30T01:51:21.717Z,987.61
2016-05-30T01:52:21.642Z,987.58
2016-05-30T01:53:21.364Z,987.61
2016-05-30T01:54:21.381Z,987.63
2016-05-30T01:55:21.400Z,987.57
2016-05-30T01:56:21.417Z,987.61
2016-05-30T01:58:21.455Z,987.53
2016-05-30T01:59:21.489Z,987.57
2016-05-30T02:01:21.526Z,987.54
2016-05-30T02:02:21.544Z,987.6
2016-05-30T02:03:21.561Z,987.61
2016-05-30T02:04:21.580Z,987.63
2016-05-30T02:05:21.599Z,987.58
2016-05-30T02:06:21.914Z,987.6
2016-05-30T02:07:21.636Z,987.6
2016-05-30T02:08:21.670Z,987.62
2016-05-30T02:09:21.687Z,987.63
2016-05-30T02:10:21.706Z,987.67
2016-05-30T02:11:21.724Z,987.63
2016-05-30T02:12:21.743Z,987.6
2016-05-30T02:13:21.761Z,987.57
2016-05-30T02:15:21.813Z,987.57
2016-05-30T02:16:21.832Z,987.57
2016-05-30T02:17:21.850Z,987.56
2016-05-30T02:18:21.868Z,987.54
2016-05-30T02:19:21.887Z,987.5
2016-05-30T02:20:21.905Z,987.47
2016-05-30T02:21:21.954Z,987.48
2016-05-30T02:22:21.942Z,987.4
2016-05-30T02:24:21.993Z,987.41
2016-05-30T02:25:21.996Z,987.42
2016-05-30T02:26:22.031Z,987.34
2016-05-30T02:27:22.048Z,987.34
2016-05-30T02:28:22.067Z,987.35
2016-05-30T02:29:22.086Z,987.35
2016-05-30T02:31:22.122Z,987.27
2016-05-30T02:32:22.139Z,987.23
2016-05-30T02:33:22.175Z,987.19
2016-05-30T02:34:22.177Z,987.19
2016-05-30T02:35:22.211Z,987.22
2016-05-30T02:36:22.291Z,987.17
2016-05-30T02:37:22.247Z,987.14
2016-05-30T02:38:22.266Z,987.12
2016-05-30T02:39:22.296Z,987.11
2016-05-30T02:40:22.358Z,987.08
2016-05-30T02:41:22.402Z,987.07
2016-05-30T02:42:22.432Z,987.11
2016-05-30T02:43:22.494Z,987.12
2016-05-30T02:44:22.530Z,987.14
2016-05-30T02:45:22.559Z,987.15
2016-05-30T02:46:22.586Z,987.13
2016-05-30T02:47:22.614Z,987.14
2016-05-30T02:48:22.642Z,987.13
2016-05-30T02:49:22.667Z,987.16
2016-05-30T02:50:22.704Z,987.15
2016-05-30T02:51:22.726Z,987.17
2016-05-30T02:52:22.748Z,987.16
2016-05-30T02:53:22.769Z,987.19
2016-05-30T02:54:22.790Z,987.16
2016-05-30T02:55:22.810Z,987.17
2016-05-30T02:56:22.829Z,987.18
2016-05-30T02:57:22.849Z,987.15
2016-05-30T02:58:22.869Z,987.18
2016-05-30T02:59:22.903Z,987.16
2016-05-30T03:00:22.922Z,987.18
2016-05-30T03:01:22.942Z,987.18
2016-05-30T03:02:22.960Z,987.17
2016-05-30T03:03:22.979Z,987.15
2016-05-30T03:04:22.998Z,987.2
2016-05-30T03:05:23.017Z,987.19
2016-05-30T03:06:23.051Z,987.22
2016-05-30T03:07:23.068Z,987.21
2016-05-30T03:08:23.086Z,987.21
2016-05-30T03:09:23.106Z,987.19
2016-05-30T03:10:23.124Z,987.21
2016-05-30T03:11:23.142Z,987.23
2016-05-30T03:12:23.161Z,987.2
2016-05-30T03:13:23.194Z,987.22
2016-05-30T03:14:23.212Z,987.22
2016-05-30T03:15:23.231Z,987.24
2016-05-30T03:16:23.250Z,987.24
2016-05-30T03:17:23.267Z,987.21
2016-05-30T03:18:23.286Z,987.22
2016-05-30T03:19:23.304Z,987.19
2016-05-30T03:20:23.322Z,987.18
2016-05-30T03:21:23.388Z,987.19
2016-05-30T03:22:23.374Z,987.17
2016-05-30T03:23:23.393Z,987.19
2016-05-30T03:24:23.411Z,987.19
2016-05-30T03:25:23.430Z,987.19
2016-05-30T03:26:23.448Z,987.17
2016-05-30T03:27:23.465Z,987.19
2016-05-30T03:28:23.500Z,987.16
2016-05-30T03:29:23.518Z,987.14
2016-05-30T03:30:23.537Z,987.15
2016-05-30T03:31:23.554Z,987.13
2016-05-30T03:33:23.592Z,987.08
2016-05-30T03:34:23.609Z,987.07
2016-05-30T03:35:23.643Z,987.12
2016-05-30T03:36:23.646Z,987.09
2016-05-30T03:37:24.290Z,987.15
2016-05-30T03:38:23.699Z,987.16
2016-05-30T03:39:23.718Z,987.15
2016-05-30T03:40:23.735Z,987.17
2016-05-30T03:41:23.754Z,987.16
2016-05-30T03:42:23.773Z,987.13
2016-05-30T03:43:23.806Z,987.18
2016-05-30T03:44:23.809Z,987.17
2016-05-30T03:45:23.828Z,987.15
2016-05-30T03:46:23.861Z,987.17
2016-05-30T03:47:23.880Z,987.16
2016-05-30T03:48:23.897Z,987.17
2016-05-30T03:49:23.916Z,987.15
2016-05-30T03:50:32.950Z,987.14
2016-05-30T03:51:23.953Z,987.11
2016-05-30T03:52:24.002Z,987.08
2016-05-30T03:53:24.005Z,987.03
2016-05-30T03:54:24.023Z,987.02
2016-05-30T03:55:24.041Z,987.07
2016-05-30T03:56:24.060Z,987.05
2016-05-30T03:57:24.078Z,987.04
2016-05-30T03:58:24.096Z,987.02
2016-05-30T03:59:24.115Z,987.01
2016-05-30T04:00:24.149Z,987
2016-05-30T04:01:24.167Z,987.01
2016-05-30T04:02:24.185Z,986.98
2016-05-30T04:03:24.203Z,987
2016-05-30T04:04:24.222Z,986.98
2016-05-30T04:05:24.240Z,986.98
2016-05-30T04:06:24.259Z,986.99
2016-05-30T04:07:24.276Z,987.01
2016-05-30T04:08:24.295Z,986.97
2016-05-30T04:09:24.329Z,987
2016-05-30T04:10:24.348Z,986.97
2016-05-30T04:11:24.366Z,987
2016-05-30T04:13:24.402Z,986.97
2016-05-30T04:14:24.421Z,987.06
2016-05-30T04:15:24.439Z,987.02
2016-05-30T04:16:24.458Z,986.96
2016-05-30T04:17:24.476Z,986.99
2016-05-30T04:18:24.509Z,986.96
2016-05-30T04:19:24.528Z,986.94
2016-05-30T04:20:24.547Z,986.94
2016-05-30T04:21:24.564Z,986.94
2016-05-30T04:22:24.583Z,986.92
2016-05-30T04:23:24.602Z,986.97
2016-05-30T04:24:24.619Z,986.96
2016-05-30T04:25:24.638Z,986.97
2016-05-30T04:26:24.655Z,986.96
2016-05-30T04:27:24.674Z,986.89
2016-05-30T04:28:24.708Z,986.92
2016-05-30T04:29:24.726Z,986.89
2016-05-30T04:30:24.745Z,986.87
2016-05-30T04:31:24.763Z,986.86
2016-05-30T04:32:24.782Z,986.9
2016-05-30T04:33:24.815Z,986.81
2016-05-30T04:36:24.870Z,986.83
2016-05-30T04:37:24.890Z,986.86
2016-05-30T04:38:24.907Z,986.89
2016-05-30T04:39:24.940Z,986.84
2016-05-30T04:40:24.943Z,986.87
2016-05-30T04:41:24.978Z,986.84
2016-05-30T04:42:24.980Z,986.82
2016-05-30T04:43:25.015Z,986.84
2016-05-30T04:44:25.033Z,986.81
2016-05-30T04:45:25.050Z,986.78
2016-05-30T04:46:25.070Z,986.77
2016-05-30T04:47:25.087Z,986.75
2016-05-30T04:48:25.106Z,986.71
2016-05-30T04:49:25.125Z,986.71
2016-05-30T04:50:25.142Z,986.7
2016-05-30T04:51:25.177Z,986.66
2016-05-30T04:52:25.195Z,986.68
2016-05-30T04:53:25.213Z,986.67
2016-05-30T04:54:25.231Z,986.67
2016-05-30T04:55:25.250Z,986.66
2016-05-30T04:56:25.268Z,986.68
2016-05-30T04:57:25.286Z,986.72
2016-05-30T04:58:25.305Z,986.71
2016-05-30T04:59:25.338Z,986.73
2016-05-30T05:00:25.357Z,986.78
2016-05-30T05:01:25.375Z,986.78
2016-05-30T05:03:25.412Z,986.76
2016-05-30T05:04:25.430Z,986.71
2016-05-30T05:05:25.448Z,986.73
2016-05-30T05:06:25.467Z,986.69
2016-05-30T05:07:25.688Z,986.7
2016-05-30T05:08:25.518Z,986.72
2016-05-30T05:09:25.537Z,986.65
2016-05-30T05:10:25.556Z,986.7
2016-05-30T05:11:25.573Z,986.69
2016-05-30T05:13:25.611Z,986.66
2016-05-30T05:14:25.644Z,986.68
2016-05-30T05:15:25.662Z,986.7
2016-05-30T05:16:25.681Z,986.69
2016-05-30T05:17:25.700Z,986.7
2016-05-30T05:18:25.717Z,986.69
2016-05-30T05:19:25.736Z,986.71
2016-05-30T05:20:25.755Z,986.74
2016-05-30T05:21:26.148Z,986.7
2016-05-30T05:23:25.825Z,986.73
2016-05-30T05:24:25.844Z,986.71
2016-05-30T05:25:25.861Z,986.74
2016-05-30T05:26:25.880Z,986.74
2016-05-30T05:27:25.899Z,986.75
2016-05-30T05:28:25.933Z,986.79
2016-05-30T05:29:25.935Z,986.75
2016-05-30T05:31:25.988Z,986.83
2016-05-30T05:32:26.005Z,986.83
2016-05-30T05:33:26.024Z,986.84
2016-05-30T05:34:26.042Z,986.82
2016-05-30T05:35:26.060Z,986.83
2016-05-30T05:36:26.079Z,986.78
2016-05-30T05:37:26.112Z,986.8
2016-05-30T05:38:26.131Z,986.81
2016-05-30T05:39:26.149Z,986.79
2016-05-30T05:40:26.167Z,986.81
2016-05-30T05:41:26.187Z,986.78
2016-05-30T05:42:29.220Z,986.83
2016-05-30T05:43:26.223Z,986.8
2016-05-30T05:44:26.256Z,986.8
2016-05-30T05:45:26.275Z,986.84
2016-05-30T05:46:26.292Z,986.83
2016-05-30T05:47:26.328Z,986.81
2016-05-30T05:48:26.330Z,986.83
2016-05-30T05:49:26.364Z,986.88
2016-05-30T05:50:26.367Z,986.92
2016-05-30T05:51:26.400Z,986.96
2016-05-30T05:52:26.418Z,986.93
2016-05-30T05:53:26.436Z,986.86
2016-05-30T05:54:26.456Z,986.83
2016-05-30T05:55:26.474Z,986.9
2016-05-30T05:56:26.492Z,986.89
2016-05-30T05:57:26.525Z,986.88
2016-05-30T05:58:26.544Z,986.85
2016-05-30T05:59:26.563Z,986.85
2016-05-30T06:00:26.581Z,986.9
2016-05-30T06:01:26.599Z,986.88
2016-05-30T06:02:26.618Z,986.85
2016-05-30T06:03:26.636Z,986.85
2016-05-30T06:04:26.669Z,986.84
2016-05-30T06:05:26.688Z,986.83
2016-05-30T06:06:27.347Z,986.85
2016-05-30T06:07:26.724Z,986.88
2016-05-30T06:08:26.743Z,986.88
2016-05-30T06:09:26.762Z,986.89
2016-05-30T06:10:26.795Z,986.89
2016-05-30T06:11:26.813Z,986.86
2016-05-30T06:12:26.832Z,986.87
2016-05-30T06:13:26.850Z,986.88
2016-05-30T06:14:26.868Z,986.82
2016-05-30T06:15:26.903Z,986.82
2016-05-30T06:16:26.905Z,986.85
2016-05-30T06:17:26.923Z,986.85
2016-05-30T06:18:26.942Z,986.82
2016-05-30T06:19:26.975Z,986.81
2016-05-30T06:20:26.994Z,986.76
2016-05-30T06:21:27.653Z,986.72
2016-05-30T06:22:27.421Z,986.69
2016-05-30T06:23:27.064Z,986.66
2016-05-30T06:24:27.083Z,986.65
2016-05-30T06:25:27.100Z,986.66
2016-05-30T06:26:27.119Z,986.64
2016-05-30T06:27:27.138Z,986.65
2016-05-30T06:28:27.155Z,986.69
2016-05-30T06:29:27.190Z,986.63
2016-05-30T06:30:27.208Z,986.68
2016-05-30T06:31:27.226Z,986.69
2016-05-30T06:32:27.244Z,986.68
2016-05-30T06:33:27.279Z,986.65
2016-05-30T06:34:27.297Z,986.59
2016-05-30T06:35:27.316Z,986.6
2016-05-30T06:36:27.334Z,986.66
2016-05-30T06:37:27.962Z,986.71
2016-05-30T06:38:27.370Z,986.74
2016-05-30T06:39:27.388Z,986.67
2016-05-30T06:40:27.423Z,986.74
2016-05-30T06:41:27.440Z,986.76
2016-05-30T06:42:27.460Z,986.74
2016-05-30T06:43:27.478Z,986.73
2016-05-30T06:44:27.512Z,986.71
2016-05-30T06:45:27.529Z,986.72
2016-05-30T06:46:27.548Z,986.68
2016-05-30T06:47:27.567Z,986.69
2016-05-30T06:48:27.584Z,986.72
2016-05-30T06:49:27.620Z,986.71
2016-05-30T06:50:27.637Z,986.67
2016-05-30T06:51:28.342Z,986.69
2016-05-30T06:52:27.674Z,986.7
2016-05-30T06:53:27.692Z,986.66
2016-05-30T06:54:27.710Z,986.62
2016-05-30T06:55:27.745Z,986.62
2016-05-30T06:56:27.763Z,986.56
2016-05-30T06:57:27.797Z,986.59
2016-05-30T06:58:27.831Z,986.55
2016-05-30T06:59:27.817Z,986.55
2016-05-30T07:00:27.867Z,986.55
2016-05-30T07:01:27.885Z,986.57
2016-05-30T07:02:27.888Z,986.54
2016-05-30T07:03:27.922Z,986.5
2016-05-30T07:04:30.941Z,986.48
2016-05-30T07:05:27.959Z,986.55
2016-05-30T07:06:27.977Z,986.58
2016-05-30T07:07:28.105Z,986.54
2016-05-30T07:08:28.029Z,986.54
2016-05-30T07:09:28.048Z,986.51
2016-05-30T07:10:28.065Z,986.5
2016-05-30T07:11:28.085Z,986.54
2016-05-30T07:12:28.102Z,986.57
2016-05-30T07:13:28.136Z,986.52
2016-05-30T07:14:28.155Z,986.56
2016-05-30T07:15:28.189Z,986.59
2016-05-30T07:16:31.207Z,986.51
2016-05-30T07:17:28.226Z,986.52
2016-05-30T07:18:28.244Z,986.49
2016-05-30T07:19:28.262Z,986.48
2016-05-30T07:20:28.281Z,986.49
2016-05-30T07:21:28.970Z,986.51
2016-05-30T07:22:28.676Z,986.5
2016-05-30T07:23:28.351Z,986.49
2016-05-30T07:25:28.403Z,986.54
2016-05-30T07:26:28.406Z,986.55
2016-05-30T07:27:28.440Z,986.58
2016-05-30T07:28:28.458Z,986.59
2016-05-30T07:29:28.492Z,986.61
2016-05-30T07:31:28.528Z,986.67
2016-05-30T07:32:28.547Z,986.76
2016-05-30T07:33:28.565Z,986.73
2016-05-30T07:34:28.599Z,986.76
2016-05-30T07:35:28.602Z,986.78
2016-05-30T07:36:28.636Z,986.68
2016-05-30T07:37:28.654Z,986.62
2016-05-30T07:40:28.710Z,986.62
2016-05-30T07:41:28.743Z,986.61
2016-05-30T07:42:28.762Z,986.61
2016-05-30T07:43:28.779Z,986.65
2016-05-30T07:44:28.799Z,986.64
2016-05-30T07:45:28.816Z,986.56
2016-05-30T07:46:28.850Z,986.49
2016-05-30T07:47:28.868Z,986.46
2016-05-30T07:48:28.887Z,986.51
2016-05-30T07:49:28.906Z,986.51
2016-05-30T07:50:28.923Z,986.56
2016-05-30T07:51:28.942Z,986.63
2016-05-30T07:52:28.959Z,986.61
2016-05-30T07:53:28.994Z,986.67
2016-05-30T07:54:29.012Z,986.66
2016-05-30T07:55:29.031Z,986.68
2016-05-30T07:56:29.065Z,986.69
2016-05-30T07:57:29.083Z,986.71
2016-05-30T07:58:29.101Z,986.64
2016-05-30T07:59:29.119Z,986.66
2016-05-30T08:00:29.138Z,986.6
2016-05-30T08:02:29.191Z,986.53
2016-05-30T08:03:29.208Z,986.46
2016-05-30T08:05:29.245Z,986.49
2016-05-30T08:06:29.279Z,986.45
2016-05-30T08:07:29.297Z,986.41
2016-05-30T08:08:29.316Z,986.39
2016-05-30T08:09:29.335Z,986.38
2016-05-30T08:10:29.352Z,986.42
2016-05-30T08:11:29.386Z,986.47
2016-05-30T08:12:29.388Z,986.45
2016-05-30T08:13:29.423Z,986.48
2016-05-30T08:14:29.441Z,986.45
2016-05-30T08:15:32.460Z,986.53
2016-05-30T08:16:29.494Z,986.55
2016-05-30T08:17:29.512Z,986.59
2016-05-30T08:19:29.548Z,986.7
2016-05-30T08:20:29.567Z,986.7
2016-05-30T08:21:29.585Z,986.76
2016-05-30T08:22:29.604Z,986.71
2016-05-30T08:23:29.638Z,986.77
2016-05-30T08:24:29.639Z,986.74
2016-05-30T08:25:29.673Z,986.77
2016-05-30T08:26:29.692Z,986.75
2016-05-30T08:27:29.711Z,986.78
2016-05-30T08:28:29.729Z,986.86
2016-05-30T08:29:29.747Z,986.86
2016-05-30T08:30:29.781Z,986.91
2016-05-30T08:31:29.799Z,986.9
2016-05-30T08:32:29.817Z,986.94
2016-05-30T08:33:29.852Z,986.94
2016-05-30T08:34:29.870Z,987
2016-05-30T08:35:29.888Z,986.98
2016-05-30T08:36:29.922Z,987.05
2016-05-30T08:37:29.925Z,986.98
2016-05-30T08:38:29.943Z,986.96
2016-05-30T08:39:29.961Z,986.99
2016-05-30T08:40:29.996Z,986.97
2016-05-30T08:41:30.014Z,986.9
2016-05-30T08:42:30.033Z,986.89
2016-05-30T08:43:30.050Z,986.89
2016-05-30T08:46:30.121Z,986.68
2016-05-30T08:47:30.139Z,986.68
2016-05-30T08:48:30.157Z,986.62
2016-05-30T08:49:30.176Z,986.53
2016-05-30T08:50:30.195Z,986.53
2016-05-30T08:51:30.573Z,986.55
2016-05-30T08:52:30.246Z,986.51
2016-05-30T08:53:30.264Z,986.52
2016-05-30T08:54:30.283Z,986.56
2016-05-30T08:55:30.317Z,986.69
2016-05-30T08:56:30.336Z,986.78
2016-05-30T08:57:30.354Z,986.78
2016-05-30T08:58:30.373Z,986.84
2016-05-30T08:59:30.406Z,986.86
2016-05-30T09:00:30.424Z,986.9
2016-05-30T09:01:30.442Z,986.85
2016-05-30T09:02:30.461Z,986.87
2016-05-30T09:03:30.480Z,986.82
2016-05-30T09:04:30.514Z,986.78
2016-05-30T09:05:30.531Z,986.75
2016-05-30T09:06:30.550Z,986.77
2016-05-30T09:07:30.615Z,986.76
2016-05-30T09:08:30.587Z,986.75
2016-05-30T09:09:30.621Z,986.74
2016-05-30T09:10:30.638Z,986.67
2016-05-30T09:11:30.657Z,986.63
2016-05-30T09:12:30.691Z,986.65
2016-05-30T09:13:30.694Z,986.66
2016-05-30T09:14:30.727Z,986.6
2016-05-30T09:15:30.746Z,986.57
2016-05-30T09:16:30.764Z,986.54
2016-05-30T09:17:30.782Z,986.49
2016-05-30T09:18:30.816Z,986.44
2016-05-30T09:19:30.835Z,986.47
2016-05-30T09:20:30.854Z,986.52
2016-05-30T09:21:30.887Z,986.58
2016-05-30T09:22:30.921Z,986.61
2016-05-30T09:23:30.923Z,986.67
2016-05-30T09:24:30.942Z,986.67
2016-05-30T09:25:30.976Z,986.63
2016-05-30T09:26:30.995Z,986.59
2016-05-30T09:27:31.012Z,986.53
2016-05-30T09:28:31.030Z,986.47
2016-05-30T09:29:31.050Z,986.4
2016-05-30T09:30:31.083Z,986.39
2016-05-30T09:31:31.101Z,986.38
2016-05-30T09:32:31.120Z,986.38
2016-05-30T09:33:31.154Z,986.36
2016-05-30T09:34:31.172Z,986.37
2016-05-30T09:35:31.191Z,986.4
2016-05-30T09:36:31.552Z,986.48
2016-05-30T09:37:31.228Z,986.49
2016-05-30T09:38:31.261Z,986.54
2016-05-30T09:39:31.279Z,986.52
2016-05-30T09:40:31.297Z,986.57
2016-05-30T09:41:31.316Z,986.54
2016-05-30T09:42:31.349Z,986.49
2016-05-30T09:43:31.369Z,986.44
2016-05-30T09:44:31.386Z,986.47
2016-05-30T09:45:31.404Z,986.6
2016-05-30T09:46:31.439Z,986.67
2016-05-30T09:47:31.441Z,986.71
2016-05-30T09:48:31.475Z,986.71
2016-05-30T09:49:31.494Z,986.75
2016-05-30T09:50:31.512Z,986.82
2016-05-30T09:51:31.530Z,986.83
2016-05-30T09:52:31.564Z,986.83
2016-05-30T09:53:31.598Z,986.82
2016-05-30T09:54:31.600Z,986.81
2016-05-30T09:55:31.619Z,986.89
2016-05-30T09:56:31.637Z,986.93
2016-05-30T09:57:31.656Z,986.94
2016-05-30T09:58:31.689Z,986.96
2016-05-30T09:59:31.708Z,986.95
2016-05-30T10:00:31.726Z,986.98
2016-05-30T10:01:31.761Z,987.11
2016-05-30T10:02:31.778Z,987.16
2016-05-30T10:03:31.797Z,987.29
2016-05-30T10:04:31.831Z,987.33
2016-05-30T10:05:31.834Z,987.26
2016-05-30T10:06:31.867Z,987.23
2016-05-30T10:07:32.011Z,987.21
2016-05-30T10:08:31.920Z,987.14
2016-05-30T10:09:31.939Z,987.24
2016-05-30T10:10:31.956Z,987.17
2016-05-30T10:11:31.975Z,987.15
2016-05-30T10:12:31.994Z,987.09
2016-05-30T10:13:32.027Z,987.1
2016-05-30T10:14:32.046Z,987.07
2016-05-30T10:15:32.064Z,987.11
2016-05-30T10:16:32.097Z,987.07
2016-05-30T10:17:32.116Z,987.05
2016-05-30T10:18:32.134Z,987.06
2016-05-30T10:19:32.152Z,987.07
2016-05-30T10:20:32.187Z,987.08
2016-05-30T10:21:32.673Z,987.12
2016-05-30T10:22:32.988Z,986.99
2016-05-30T10:23:32.257Z,986.95
2016-05-30T10:24:32.276Z,986.95
2016-05-30T10:25:32.293Z,986.89
2016-05-30T10:26:32.312Z,986.87
2016-05-30T10:27:32.346Z,986.88
2016-05-30T10:28:32.379Z,986.91
2016-05-30T10:29:32.382Z,986.9
2016-05-30T10:30:32.417Z,986.86
2016-05-30T10:31:32.434Z,986.85
2016-05-30T10:32:32.453Z,986.86
2016-05-30T10:33:32.487Z,986.83
2016-05-30T10:34:32.505Z,986.79
2016-05-30T10:35:32.523Z,986.85
2016-05-30T10:36:32.542Z,986.83
2016-05-30T10:37:32.576Z,986.85
2016-05-30T10:38:32.594Z,986.9
2016-05-30T10:39:32.613Z,986.83
2016-05-30T10:40:32.646Z,986.88
2016-05-30T10:41:32.665Z,986.86
2016-05-30T10:42:32.683Z,986.82
2016-05-30T10:43:32.717Z,986.81
2016-05-30T10:44:32.736Z,986.8
2016-05-30T10:45:32.754Z,986.84
2016-05-30T10:46:32.787Z,986.8
2016-05-30T10:47:32.806Z,986.79
2016-05-30T10:48:32.824Z,986.82
2016-05-30T10:49:32.842Z,986.84
2016-05-30T10:50:32.860Z,986.89
2016-05-30T10:51:32.896Z,986.91
2016-05-30T10:52:32.991Z,986.85
2016-05-30T10:53:32.932Z,986.83
2016-05-30T10:54:32.950Z,986.81
2016-05-30T10:55:32.984Z,986.77
2016-05-30T10:56:33.002Z,986.8
2016-05-30T10:57:33.021Z,986.81
2016-05-30T10:58:33.054Z,986.77
2016-05-30T10:59:33.073Z,986.81
2016-05-30T11:00:33.090Z,986.84
2016-05-30T11:01:33.109Z,986.85
2016-05-30T11:02:33.128Z,986.87
2016-05-30T11:03:33.145Z,986.91
2016-05-30T11:04:33.164Z,986.94
2016-05-30T11:05:33.198Z,986.97
2016-05-30T11:06:33.231Z,986.92
2016-05-30T11:07:33.234Z,986.93
2016-05-30T11:08:33.269Z,986.9
2016-05-30T11:09:33.286Z,986.93
2016-05-30T11:10:33.305Z,986.91
2016-05-30T11:11:33.324Z,986.97
2016-05-30T11:12:33.358Z,987.02
2016-05-30T11:13:33.375Z,986.98
2016-05-30T11:14:33.394Z,986.92
2016-05-30T11:15:33.413Z,986.95
2016-05-30T11:16:33.446Z,986.91
2016-05-30T11:17:33.465Z,986.91
2016-05-30T11:18:33.483Z,986.89
2016-05-30T11:19:33.502Z,986.91
2016-05-30T11:20:33.535Z,986.91
2016-05-30T11:21:33.554Z,986.92
2016-05-30T11:22:34.010Z,986.98
2016-05-30T11:23:33.607Z,986.98
2016-05-30T11:24:33.609Z,986.98
2016-05-30T11:25:33.643Z,987
2016-05-30T11:26:33.660Z,986.95
2016-05-30T11:27:33.679Z,986.98
2016-05-30T11:28:33.697Z,987
2016-05-30T11:29:33.732Z,987.06
2016-05-30T11:30:33.750Z,987.13
2016-05-30T11:31:33.768Z,987.18
2016-05-30T11:32:33.801Z,987.19
2016-05-30T11:33:33.804Z,987.12
2016-05-30T11:34:33.839Z,987.08
2016-05-30T11:35:33.857Z,987
2016-05-30T11:36:34.375Z,986.99
2016-05-30T11:37:33.909Z,987.09
2016-05-30T11:38:33.927Z,987.09
2016-05-30T11:39:33.946Z,987.12
2016-05-30T11:40:33.964Z,987.06
2016-05-30T11:41:33.982Z,987.13
2016-05-30T11:42:34.000Z,987.12
2016-05-30T11:43:34.035Z,987.13
2016-05-30T11:44:34.053Z,987.03
2016-05-30T11:45:34.086Z,987.07
2016-05-30T11:46:34.125Z,987.07
2016-05-30T11:47:34.180Z,987.07
2016-05-30T11:48:34.218Z,987.1
2016-05-30T11:49:34.256Z,987.11
2016-05-30T11:50:34.301Z,987.13
2016-05-30T11:51:34.342Z,987.06
2016-05-30T11:52:34.524Z,987.09
2016-05-30T11:53:34.394Z,987.17
2016-05-30T11:54:34.419Z,987.13
2016-05-30T11:55:34.441Z,987.18
2016-05-30T11:56:34.462Z,987.24
2016-05-30T11:57:34.483Z,987.22
2016-05-30T11:58:34.504Z,987.32
2016-05-30T11:59:34.525Z,987.37
2016-05-30T12:00:34.608Z,987.41
2016-05-30T12:01:34.612Z,987.35
2016-05-30T12:02:34.600Z,987.32
2016-05-30T12:03:34.651Z,987.31
2016-05-30T12:04:34.701Z,987.24
2016-05-30T12:05:34.720Z,987.16
2016-05-30T12:06:35.473Z,987.13
2016-05-30T12:07:34.726Z,987.17
2016-05-30T12:08:34.745Z,987.16
2016-05-30T12:09:34.764Z,987.12
2016-05-30T12:10:34.798Z,987.12
2016-05-30T12:11:34.816Z,987.08
2016-05-30T12:12:34.834Z,987.11
2016-05-30T12:13:34.853Z,987.12
2016-05-30T12:14:34.886Z,987.21
2016-05-30T12:15:34.905Z,987.21
2016-05-30T12:16:34.923Z,987.25
2016-05-30T12:17:34.957Z,987.37
2016-05-30T12:18:34.976Z,987.44
2016-05-30T12:19:34.994Z,987.53
2016-05-30T12:20:35.012Z,987.48
2016-05-30T12:21:35.031Z,987.49
2016-05-30T12:22:35.080Z,987.37
2016-05-30T12:23:35.083Z,987.34
2016-05-30T12:24:35.117Z,987.35
2016-05-30T12:25:35.135Z,987.42
2016-05-30T12:26:35.153Z,987.47
2016-05-30T12:27:35.188Z,987.55
2016-05-30T12:28:35.190Z,987.53
2016-05-30T12:29:35.224Z,987.51
2016-05-30T12:30:35.242Z,987.54
2016-05-30T12:31:35.261Z,987.42
2016-05-30T12:32:35.294Z,987.33
2016-05-30T12:33:35.313Z,987.39
2016-05-30T12:34:35.346Z,987.49
2016-05-30T12:35:35.365Z,987.52
2016-05-30T12:36:35.477Z,987.39
2016-05-30T12:37:35.418Z,987.37
2016-05-30T12:38:35.420Z,987.45
2016-05-30T12:39:35.454Z,987.53
2016-05-30T12:40:35.473Z,987.37
2016-05-30T12:41:35.506Z,987.36
2016-05-30T12:42:35.524Z,987.34
2016-05-30T12:43:35.559Z,987.25
2016-05-30T12:44:35.577Z,987.36
2016-05-30T12:45:35.611Z,987.39
2016-05-30T12:46:35.629Z,987.36
2016-05-30T12:47:35.647Z,987.3
2016-05-30T12:48:35.682Z,987.26
2016-05-30T12:49:35.700Z,987.26
2016-05-30T12:50:35.718Z,987.17
2016-05-30T12:51:35.736Z,987.25
2016-05-30T12:52:35.770Z,987.26
2016-05-30T12:53:35.789Z,987.24
2016-05-30T12:54:35.806Z,987.25
2016-05-30T12:55:35.841Z,987.15
2016-05-30T12:56:35.859Z,987.12
2016-05-30T12:57:35.894Z,987.05
2016-05-30T12:58:35.927Z,987.06
2016-05-30T12:59:35.945Z,987.05
2016-05-30T13:00:35.963Z,986.99